createdAt,value
2018-03-20T00:01:38.062Z,99300.44
2018-03-20T00:04:12.909Z,99301.73
2018-03-20T00:06:45.914Z,99302.58
2018-03-20T00:09:19.667Z,99297.11
2018-03-20T00:11:53.000Z,99293.33
2018-03-20T00:14:26.254Z,99303.12
2018-03-20T00:17:00.205Z,99300.13
2018-03-20T00:19:33.444Z,99292.06
2018-03-20T00:22:06.451Z,99296.34
2018-03-20T00:24:40.267Z,99297.58
2018-03-20T00:27:13.957Z,99295.91
2018-03-20T00:29:46.902Z,99289.48
2018-03-20T00:32:19.782Z,99295.14
2018-03-20T00:34:53.078Z,99301.53
2018-03-20T00:37:26.068Z,99303.61
2018-03-20T00:39:59.233Z,99293.38
2018-03-20T00:42:32.292Z,99296.31
2018-03-20T00:45:05.288Z,99294.63
2018-03-20T00:47:38.610Z,99293.81
2018-03-20T00:50:11.601Z,99296.39
2018-03-20T00:52:44.693Z,99296.86
2018-03-20T00:55:17.766Z,99292.18
2018-03-20T00:57:51.916Z,99288.78
2018-03-20T01:00:26.010Z,99291.36
2018-03-20T01:02:59.635Z,99290.53
2018-03-20T01:05:32.720Z,99284.56
2018-03-20T01:08:05.781Z,99291.36
2018-03-20T01:10:39.182Z,99293.94
2018-03-20T01:13:12.462Z,99295.62
2018-03-20T01:15:45.792Z,99297.34
2018-03-20T01:18:19.458Z,99296.45
2018-03-20T01:20:53.175Z,99293.91
2018-03-20T01:23:26.055Z,99300.30
2018-03-20T01:25:59.465Z,99292.66
2018-03-20T01:28:32.667Z,99296.08
2018-03-20T01:31:05.701Z,99289.66
2018-03-20T01:33:39.105Z,99282.89
2018-03-20T01:36:12.976Z,99285.41
2018-03-20T01:38:46.166Z,99287.14
2018-03-20T01:41:19.573Z,99286.69
2018-03-20T01:43:53.037Z,99281.61
2018-03-20T01:46:26.298Z,99289.27
2018-03-20T01:48:59.256Z,99282.03
2018-03-20T01:51:33.135Z,99280.33
2018-03-20T01:54:06.544Z,99275.67
2018-03-20T01:56:39.571Z,99279.46
2018-03-20T01:59:12.537Z,99282.47
2018-03-20T02:01:47.328Z,99279.07
2018-03-20T02:04:20.516Z,99278.20
2018-03-20T02:06:53.454Z,99276.54
2018-03-20T02:09:26.688Z,99276.53
2018-03-20T02:11:59.876Z,99272.31
2018-03-20T02:14:32.840Z,99266.78
2018-03-20T02:17:06.046Z,99270.61
2018-03-20T02:19:39.342Z,99269.31
2018-03-20T02:22:12.254Z,99268.08
2018-03-20T02:24:45.938Z,99272.31
2018-03-20T02:27:20.947Z,99276.98
2018-03-20T02:29:53.813Z,99269.33
2018-03-20T02:32:27.052Z,99265.92
2018-03-20T02:35:00.027Z,99274.41
2018-03-20T02:37:33.953Z,99279.52
2018-03-20T02:40:07.768Z,99279.08
2018-03-20T02:42:41.047Z,99277.81
2018-03-20T02:45:14.340Z,99279.48
2018-03-20T02:47:47.488Z,99276.11
2018-03-20T02:50:20.493Z,99278.68
2018-03-20T02:52:54.109Z,99283.77
2018-03-20T02:55:27.190Z,99278.23
2018-03-20T02:58:00.129Z,99284.20
2018-03-20T03:00:33.387Z,99287.17
2018-03-20T03:03:06.647Z,99283.77
2018-03-20T03:05:41.054Z,99285.90
2018-03-20T03:08:14.672Z,99284.18
2018-03-20T03:10:48.803Z,99281.21
2018-03-20T03:13:22.235Z,99282.08
2018-03-20T03:15:55.611Z,99284.20
2018-03-20T03:18:28.601Z,99279.09
2018-03-20T03:21:02.690Z,99290.14
2018-03-20T03:23:35.880Z,99284.19
2018-03-20T03:26:08.965Z,99280.39
2018-03-20T03:28:42.621Z,99289.70
2018-03-20T03:31:15.925Z,99295.64
2018-03-20T03:33:48.879Z,99297.37
2018-03-20T03:36:22.242Z,99294.37
2018-03-20T03:38:56.905Z,99302.45
2018-03-20T03:41:30.459Z,99296.08
2018-03-20T03:44:03.796Z,99296.89
2018-03-20T03:46:37.821Z,99301.17
2018-03-20T03:49:10.746Z,99303.30
2018-03-20T03:51:44.296Z,99303.30
2018-03-20T03:54:17.764Z,99302.44
2018-03-20T03:56:50.746Z,99314.75
2018-03-20T03:59:23.721Z,99307.52
2018-03-20T04:01:58.378Z,99310.09
2018-03-20T04:04:31.278Z,99302.42
2018-03-20T04:07:04.307Z,99304.98
2018-03-20T04:09:37.730Z,99296.47
2018-03-20T04:12:10.655Z,99298.60
2018-03-20T04:14:43.629Z,99296.08
2018-03-20T04:17:16.888Z,99291.41
2018-03-20T04:19:50.232Z,99286.73
2018-03-20T04:22:23.448Z,99286.75
2018-03-20T04:24:56.668Z,99287.19
2018-03-20T04:27:29.505Z,99281.22
2018-03-20T04:30:02.878Z,99287.59
2018-03-20T04:32:35.879Z,99296.91
2018-03-20T04:35:08.812Z,99298.19
2018-03-20T04:37:42.114Z,99299.89
2018-03-20T04:40:15.072Z,99296.91
2018-03-20T04:42:48.179Z,99299.45
2018-03-20T04:45:21.525Z,99299.02
2018-03-20T04:47:54.876Z,99298.63
2018-03-20T04:50:27.849Z,99291.39
2018-03-20T04:53:01.471Z,99290.98
2018-03-20T04:55:34.652Z,99286.28
2018-03-20T04:58:07.880Z,99287.14
2018-03-20T05:00:40.910Z,99282.48
2018-03-20T05:03:14.210Z,99278.21
2018-03-20T05:05:47.786Z,99276.11
2018-03-20T05:08:20.804Z,99276.55
2018-03-20T05:10:53.985Z,99270.17
2018-03-20T05:14:58.088Z,99273.99
2018-03-20T05:17:31.793Z,99281.66
2018-03-20T05:20:05.454Z,99282.06
2018-03-20T05:22:39.148Z,99278.66
2018-03-20T05:25:12.393Z,99276.54
2018-03-20T05:27:46.926Z,99270.63
2018-03-20T05:30:20.103Z,99266.38
2018-03-20T05:32:53.208Z,99269.76
2018-03-20T05:35:26.673Z,99270.18
2018-03-20T05:38:00.394Z,99267.64
2018-03-20T05:40:33.458Z,99271.02
2018-03-20T05:43:06.934Z,99261.27
2018-03-20T05:45:40.730Z,99263.39
2018-03-20T05:48:14.842Z,99262.08
2018-03-20T05:50:49.581Z,99264.63
2018-03-20T05:53:23.507Z,99268.86
2018-03-20T05:55:56.450Z,99267.54
2018-03-20T05:58:30.186Z,99273.90
2018-03-20T06:01:03.356Z,99284.48
2018-03-20T06:03:36.434Z,99289.55
2018-03-20T06:06:09.963Z,99295.00
2018-03-20T06:08:43.116Z,99300.87
2018-03-20T06:11:16.553Z,99294.46
2018-03-20T06:13:50.585Z,99284.23
2018-03-20T06:16:27.448Z,99280.78
2018-03-20T06:19:01.262Z,99288.35
2018-03-20T06:21:38.120Z,99296.66
2018-03-20T06:24:12.432Z,99298.25
2018-03-20T06:26:45.769Z,99300.60
2018-03-20T06:29:19.628Z,99300.39
2018-03-20T06:31:54.554Z,99310.00
2018-03-20T06:34:28.496Z,99306.08
2018-03-20T06:37:01.818Z,99302.05
2018-03-20T06:39:36.504Z,99298.45
2018-03-20T06:42:10.016Z,99288.16
2018-03-20T06:44:44.123Z,99286.93
2018-03-20T06:47:19.768Z,99289.45
2018-03-20T06:49:52.950Z,99290.90
2018-03-20T06:52:26.725Z,99282.64
2018-03-20T06:55:00.202Z,99285.45
2018-03-20T06:57:34.758Z,99290.97
2018-03-20T07:00:08.832Z,99288.97
2018-03-20T07:02:42.474Z,99288.39
2018-03-20T07:05:18.014Z,99291.13
2018-03-20T07:07:51.466Z,99288.12
2018-03-20T07:10:25.847Z,99289.63
2018-03-20T07:13:00.187Z,99259.74
2018-03-20T07:15:35.204Z,99274.78
2018-03-20T07:18:09.431Z,99282.05
2018-03-20T07:20:43.166Z,99256.38
2018-03-20T07:23:16.811Z,99279.92
2018-03-20T07:25:50.846Z,99277.47
2018-03-20T07:28:24.935Z,99266.49
2018-03-20T07:30:58.550Z,99268.43
2018-03-20T07:33:35.646Z,99257.36
2018-03-20T07:36:09.492Z,99259.33
2018-03-20T07:38:43.131Z,99261.53
2018-03-20T07:41:16.592Z,99255.34
2018-03-20T07:43:50.762Z,99263.84
2018-03-20T07:46:24.751Z,99266.28
2018-03-20T07:48:58.467Z,99276.31
2018-03-20T07:51:36.082Z,99273.05
2018-03-20T07:54:14.013Z,99271.80
2018-03-20T07:56:47.893Z,99265.55
2018-03-20T07:59:21.995Z,99281.38
2018-03-20T08:01:55.124Z,99285.48
2018-03-20T08:04:28.829Z,99287.86
2018-03-20T08:07:02.854Z,99284.23
2018-03-20T08:09:36.924Z,99287.61
2018-03-20T08:12:14.095Z,99282.22
2018-03-20T08:14:51.632Z,99291.61
2018-03-20T08:19:51.781Z,99284.20
2018-03-20T08:22:24.935Z,99289.16
2018-03-20T08:24:58.640Z,99295.67
2018-03-20T08:27:33.241Z,99301.15
2018-03-20T08:33:08.300Z,99305.81
2018-03-20T08:38:56.542Z,99307.70
2018-03-20T08:44:41.620Z,99315.03
2018-03-20T08:47:29.116Z,99315.19
2018-03-20T08:50:03.790Z,99321.83
2018-03-20T08:52:39.516Z,99324.33
2018-03-20T08:55:25.657Z,99316.45
2018-03-20T08:58:04.671Z,99328.23
2018-03-20T09:00:55.840Z,99326.17
2018-03-20T09:03:34.206Z,99330.25
2018-03-20T09:06:07.495Z,99332.54
2018-03-20T09:08:41.391Z,99336.78
2018-03-20T09:11:15.935Z,99333.42
2018-03-20T09:14:09.057Z,99331.14
2018-03-20T09:16:44.799Z,99316.61
2018-03-20T09:19:19.268Z,99328.03
2018-03-20T09:22:03.954Z,99325.37
2018-03-20T09:24:41.327Z,99332.80
2018-03-20T09:27:16.636Z,99336.89
2018-03-20T09:29:50.661Z,99337.01
2018-03-20T09:35:22.940Z,99344.36
2018-03-20T09:44:17.719Z,99351.17
2018-03-20T09:46:51.278Z,99350.19
2018-03-20T09:49:30.395Z,99335.09
2018-03-20T09:52:11.196Z,99353.02
2018-03-20T09:54:51.334Z,99361.29
2018-03-20T10:03:17.688Z,99361.13
2018-03-20T10:06:16.826Z,99367.47
2018-03-20T10:08:57.354Z,99370.61
2018-03-20T10:11:35.882Z,99369.66
2018-03-20T10:14:09.845Z,99375.61
2018-03-20T10:16:47.811Z,99380.77
2018-03-20T10:19:21.948Z,99370.25
2018-03-20T10:22:03.154Z,99384.88
2018-03-20T10:24:37.891Z,99390.48
2018-03-20T10:27:13.401Z,99380.45
2018-03-20T10:29:46.820Z,99384.08
2018-03-20T10:32:20.044Z,99390.55
2018-03-20T10:34:55.399Z,99391.15
2018-03-20T10:37:34.757Z,99397.18
2018-03-20T10:40:17.706Z,99394.78
2018-03-20T10:42:58.623Z,99393.75
2018-03-20T10:48:29.812Z,99396.34
2018-03-20T10:51:08.775Z,99405.56
2018-03-20T10:53:42.658Z,99406.05
2018-03-20T10:56:17.231Z,99400.92
2018-03-20T10:58:50.748Z,99404.42
2018-03-20T11:01:31.907Z,99408.83
2018-03-20T11:04:06.002Z,99411.86
2018-03-20T11:06:39.919Z,99411.41
2018-03-20T11:09:14.496Z,99413.30
2018-03-20T11:11:56.432Z,99413.48
2018-03-20T11:14:30.700Z,99419.32
2018-03-20T11:17:03.933Z,99415.82
2018-03-20T11:19:36.891Z,99420.80
2018-03-20T11:22:15.111Z,99427.47
2018-03-20T11:24:48.471Z,99427.50
2018-03-20T11:27:23.736Z,99429.08
2018-03-20T11:29:57.548Z,99440.29
2018-03-20T11:32:35.688Z,99437.03
2018-03-20T11:35:09.199Z,99440.20
2018-03-20T11:37:46.261Z,99445.62
2018-03-20T11:40:20.162Z,99446.75
2018-03-20T11:42:56.231Z,99443.29
2018-03-20T11:45:29.874Z,99450.53
2018-03-20T11:48:06.268Z,99450.89
2018-03-20T11:50:40.198Z,99452.33
2018-03-20T11:53:16.031Z,99458.18
2018-03-20T11:55:50.834Z,99464.21
2018-03-20T11:58:25.039Z,99452.31
2018-03-20T12:00:58.699Z,99462.75
2018-03-20T12:03:31.724Z,99467.61
2018-03-20T12:06:10.427Z,99455.92
2018-03-20T12:08:51.166Z,99462.70
2018-03-20T12:11:25.811Z,99466.30
2018-03-20T12:13:59.049Z,99458.09
2018-03-20T12:16:32.172Z,99467.71
2018-03-20T12:19:06.798Z,99459.86
2018-03-20T12:21:40.332Z,99469.47
2018-03-20T12:24:14.219Z,99477.96
2018-03-20T12:26:47.675Z,99473.45
2018-03-20T12:29:21.337Z,99478.25
2018-03-20T12:31:54.325Z,99482.17
2018-03-20T12:34:27.755Z,99487.06
2018-03-20T12:37:04.109Z,99483.18
2018-03-20T12:39:38.239Z,99487.83
2018-03-20T12:42:11.292Z,99485.53
2018-03-20T12:44:45.526Z,99482.98
2018-03-20T12:47:19.585Z,99502.12
2018-03-20T12:49:53.097Z,99494.58
2018-03-20T12:52:26.425Z,99499.31
2018-03-20T12:54:59.832Z,99509.12
2018-03-20T12:57:35.500Z,99491.85
2018-03-20T13:00:09.705Z,99508.94
2018-03-20T13:02:47.387Z,99511.23
2018-03-20T13:05:20.935Z,99505.25
2018-03-20T13:07:55.503Z,99515.28
2018-03-20T13:10:30.294Z,99513.41
2018-03-20T13:13:05.125Z,99520.93
2018-03-20T13:15:39.074Z,99522.63
2018-03-20T13:18:13.926Z,99526.15
2018-03-20T13:20:47.190Z,99532.19
2018-03-20T13:26:06.366Z,99537.03
2018-03-20T13:28:41.106Z,99545.48
2018-03-20T13:31:14.379Z,99542.88
2018-03-20T13:33:49.815Z,99548.70
2018-03-20T13:36:22.968Z,99559.42
2018-03-20T13:38:56.844Z,99554.08
2018-03-20T13:41:32.791Z,99561.04
2018-03-20T13:44:07.021Z,99568.67
2018-03-20T13:46:40.299Z,99575.75
2018-03-20T13:49:13.441Z,99568.86
2018-03-20T13:51:48.180Z,99574.55
2018-03-20T13:54:25.925Z,99575.48
2018-03-20T13:56:59.180Z,99580.55
2018-03-20T14:02:46.371Z,99576.03
2018-03-20T14:05:44.341Z,99586.89
2018-03-20T14:11:45.305Z,99569.94
2018-03-20T14:14:25.868Z,99597.52
2018-03-20T14:20:25.357Z,99604.14
2018-03-20T14:23:09.521Z,99611.89
2018-03-20T14:25:52.125Z,99619.17
2018-03-20T14:28:25.448Z,99619.82
2018-03-20T14:31:05.964Z,99620.84
2018-03-20T14:33:46.600Z,99629.95
2018-03-20T14:36:42.151Z,99625.83
2018-03-20T14:39:26.659Z,99640.70
2018-03-20T14:42:10.281Z,99650.97
2018-03-20T14:44:51.737Z,99648.96
2018-03-20T14:47:26.136Z,99666.94
2018-03-20T14:50:01.173Z,99663.72
2018-03-20T14:52:43.673Z,99674.20
2018-03-20T15:01:25.634Z,99697.08
2018-03-20T15:03:59.221Z,99686.27
2018-03-20T15:12:51.620Z,99716.58
2018-03-20T15:15:25.565Z,99725.00
2018-03-20T15:17:59.890Z,99753.81
2018-03-20T15:20:33.199Z,99746.24
2018-03-20T15:23:07.242Z,99753.99
2018-03-20T15:25:41.390Z,99764.05
2018-03-20T15:28:14.768Z,99775.71
2018-03-20T15:30:48.000Z,99791.94
2018-03-20T15:33:21.717Z,99787.70
2018-03-20T15:35:55.344Z,99797.20
2018-03-20T15:38:28.557Z,99787.80
2018-03-20T15:41:02.943Z,99801.94
2018-03-20T15:43:36.130Z,99816.61
2018-03-20T15:46:09.341Z,99811.70
2018-03-20T15:48:44.097Z,99789.05
2018-03-20T15:51:22.703Z,99830.63
2018-03-20T15:53:56.612Z,99834.21
2018-03-20T15:56:29.707Z,99836.31
2018-03-20T15:59:03.806Z,99846.15
2018-03-20T16:01:38.387Z,99850.39
2018-03-20T16:04:12.667Z,99860.33
2018-03-20T16:06:46.068Z,99858.47
2018-03-20T16:09:20.134Z,99864.05
2018-03-20T16:11:54.254Z,99874.89
2018-03-20T16:14:28.701Z,99876.33
2018-03-20T16:17:02.013Z,99890.14
2018-03-20T16:19:36.309Z,99888.14
2018-03-20T16:22:10.307Z,99896.78
2018-03-20T16:24:44.408Z,99913.48
2018-03-20T16:27:18.847Z,99911.34
2018-03-20T16:29:52.367Z,99910.91
2018-03-20T16:32:26.523Z,99923.55
2018-03-20T16:34:59.845Z,99938.02
2018-03-20T16:37:33.631Z,99937.93
2018-03-20T16:40:07.652Z,99945.72
2018-03-20T16:42:41.162Z,99950.39
2018-03-20T16:45:14.496Z,99956.83
2018-03-20T16:47:48.789Z,99971.02
2018-03-20T16:50:23.291Z,99968.78
2018-03-20T16:52:57.678Z,99961.47
2018-03-20T16:55:32.103Z,99967.10
2018-03-20T16:58:05.663Z,99973.13
2018-03-20T17:00:38.926Z,99982.14
2018-03-20T17:03:13.455Z,99988.11
2018-03-20T17:05:46.863Z,99994.17
2018-03-20T17:08:20.263Z,99992.88
2018-03-20T17:10:57.746Z,99992.32
2018-03-20T17:13:32.684Z,100003.06
2018-03-20T17:16:07.378Z,100002.54
2018-03-20T17:18:42.518Z,100012.43
2018-03-20T17:21:21.294Z,100018.49
2018-03-20T17:23:56.231Z,100018.11
2018-03-20T17:26:33.337Z,100029.63
2018-03-20T17:29:07.150Z,100023.47
2018-03-20T17:31:41.559Z,100034.08
2018-03-20T17:34:16.853Z,100041.00
2018-03-20T17:36:52.750Z,100049.17
2018-03-20T17:39:28.307Z,100053.42
2018-03-20T17:42:02.858Z,100051.18
2018-03-20T17:44:38.641Z,100061.59
2018-03-20T17:47:12.800Z,100064.59
2018-03-20T17:49:48.628Z,100069.72
2018-03-20T17:52:22.772Z,100065.38
2018-03-20T17:54:56.878Z,100076.94
2018-03-20T17:57:31.424Z,100079.12
2018-03-20T18:00:07.258Z,100083.00
2018-03-20T18:02:41.728Z,100083.95
2018-03-20T18:05:17.081Z,100084.80
2018-03-20T18:07:51.622Z,100088.16
2018-03-20T18:10:25.671Z,100102.64
2018-03-20T18:12:59.795Z,100099.30
2018-03-20T18:15:33.124Z,100098.86
2018-03-20T18:18:08.089Z,100106.56
2018-03-20T18:20:43.350Z,100106.17
2018-03-20T18:23:17.047Z,100114.86
2018-03-20T18:25:51.369Z,100125.09
2018-03-20T18:28:26.773Z,100124.96
2018-03-20T18:31:01.514Z,100134.89
2018-03-20T18:33:35.841Z,100142.29
2018-03-20T18:36:15.753Z,100145.77
2018-03-20T18:38:50.532Z,100149.64
2018-03-20T18:41:25.484Z,100146.80
2018-03-20T18:43:59.206Z,100158.80
2018-03-20T18:46:33.542Z,100158.32
2018-03-20T18:49:07.614Z,100167.44
2018-03-20T18:51:42.198Z,100169.19
2018-03-20T18:54:17.677Z,100167.52
2018-03-20T18:56:52.260Z,100172.36
2018-03-20T18:59:27.191Z,100173.33
2018-03-20T19:02:02.625Z,100173.48
2018-03-20T19:04:40.040Z,100176.95
2018-03-20T19:07:14.370Z,100182.18
2018-03-20T19:09:48.739Z,100192.09
2018-03-20T19:12:24.213Z,100194.28
2018-03-20T19:14:57.528Z,100188.27
2018-03-20T19:17:32.470Z,100196.79
2018-03-20T19:20:07.105Z,100205.70
2018-03-20T19:22:41.273Z,100207.46
2018-03-20T19:25:15.542Z,100206.44
2018-03-20T19:27:50.298Z,100209.35
2018-03-20T19:30:24.854Z,100210.27
2018-03-20T19:32:59.127Z,100217.88
2018-03-20T19:35:34.793Z,100224.75
2018-03-20T19:38:09.450Z,100220.84
2018-03-20T19:40:44.033Z,100223.39
2018-03-20T19:43:18.409Z,100234.09
2018-03-20T19:47:22.034Z,100230.89
2018-03-20T19:49:55.983Z,100242.09
2018-03-20T19:52:32.376Z,100250.41
2018-03-20T19:55:07.726Z,100254.58
2018-03-20T19:57:42.653Z,100255.89
2018-03-20T20:00:18.324Z,100260.30
2018-03-20T20:02:53.085Z,100267.69
2018-03-20T20:05:27.028Z,100272.67
2018-03-20T20:08:01.268Z,100273.43
2018-03-20T20:10:35.669Z,100278.19
2018-03-20T20:13:09.422Z,100284.83
2018-03-20T20:15:43.541Z,100274.23
2018-03-20T20:18:17.593Z,100287.09
2018-03-20T20:20:51.538Z,100291.67
2018-03-20T20:23:26.529Z,100300.37
2018-03-20T20:26:00.719Z,100302.88
2018-03-20T20:28:36.073Z,100311.13
2018-03-20T20:31:10.379Z,100312.92
2018-03-20T20:33:44.132Z,100321.32
2018-03-20T20:36:18.393Z,100317.53
2018-03-20T20:38:53.981Z,100331.45
2018-03-20T20:41:28.122Z,100325.72
2018-03-20T20:44:03.379Z,100327.98
2018-03-20T20:46:38.027Z,100337.42
2018-03-20T20:49:11.917Z,100335.69
2018-03-20T20:51:46.086Z,100339.55
2018-03-20T20:54:19.990Z,100334.52
2018-03-20T20:56:53.697Z,100343.08
2018-03-20T20:59:27.535Z,100349.56
2018-03-20T21:02:01.400Z,100347.88
2018-03-20T21:04:35.468Z,100356.02
2018-03-20T21:07:09.114Z,100360.30
2018-03-20T21:09:42.762Z,100356.01
2018-03-20T21:12:16.765Z,100361.14
2018-03-20T21:14:51.034Z,100359.88
2018-03-20T21:17:24.518Z,100362.47
2018-03-20T21:19:57.789Z,100375.70
2018-03-20T21:22:31.518Z,100371.89
2018-03-20T21:25:04.827Z,100370.17
2018-03-20T21:27:38.055Z,100379.16
2018-03-20T21:30:11.260Z,100382.15
2018-03-20T21:32:45.143Z,100379.98
2018-03-20T21:35:19.443Z,100387.25
2018-03-20T21:37:52.667Z,100382.56
2018-03-20T21:40:26.142Z,100388.53
2018-03-20T21:42:59.692Z,100391.12
2018-03-20T21:45:32.805Z,100399.67
2018-03-20T21:48:06.626Z,100390.67
2018-03-20T21:50:40.401Z,100398.41
2018-03-20T21:53:13.827Z,100400.53
2018-03-20T21:55:47.772Z,100403.95
2018-03-20T21:59:50.598Z,100403.50
2018-03-20T22:02:23.979Z,100407.80
2018-03-20T22:04:57.535Z,100409.48
2018-03-20T22:07:31.101Z,100411.59
2018-03-20T22:10:04.506Z,100416.30
2018-03-20T22:12:37.742Z,100423.05
2018-03-20T22:15:11.175Z,100416.19
2018-03-20T22:17:44.346Z,100423.48
2018-03-20T22:20:17.807Z,100420.09
2018-03-20T22:22:52.356Z,100427.80
2018-03-20T22:25:25.507Z,100434.61
2018-03-20T22:27:58.654Z,100438.00
2018-03-20T22:30:32.765Z,100446.95
2018-03-20T22:33:05.950Z,100446.95
2018-03-20T22:35:39.210Z,100452.94
2018-03-20T22:38:13.422Z,100455.46
2018-03-20T22:40:47.140Z,100455.48
2018-03-20T22:43:20.456Z,100461.80
2018-03-20T22:45:53.958Z,100463.94
2018-03-20T22:48:27.750Z,100466.53
2018-03-20T22:51:01.085Z,100467.80
2018-03-20T22:53:36.737Z,100473.36
2018-03-20T22:56:10.879Z,100476.75
2018-03-20T22:58:44.173Z,100480.14
2018-03-20T23:01:18.058Z,100483.95
2018-03-20T23:03:51.424Z,100488.23
2018-03-20T23:06:24.805Z,100483.94
2018-03-20T23:08:58.052Z,100491.17
2018-03-20T23:11:31.678Z,100488.61
2018-03-20T23:14:05.619Z,100492.50
2018-03-20T23:16:39.555Z,100491.23
2018-03-20T23:19:12.974Z,100493.39
2018-03-20T23:21:46.512Z,100483.97
2018-03-20T23:24:19.961Z,100495.91
2018-03-20T23:26:53.345Z,100500.12
2018-03-20T23:29:26.540Z,100508.22
2018-03-20T23:32:00.090Z,100501.16
2018-03-20T23:34:33.188Z,100510.70
2018-03-20T23:37:06.328Z,100511.14
2018-03-20T23:39:40.040Z,100512.33
2018-03-20T23:42:13.415Z,100522.46
2018-03-20T23:44:46.502Z,100523.72
2018-03-20T23:47:20.417Z,100529.63
2018-03-20T23:49:54.089Z,100533.08
2018-03-20T23:52:27.223Z,100534.70
2018-03-20T23:55:00.597Z,100536.18
2018-03-20T23:57:33.758Z,100537.42
